Time;durP1;ratioP1;P1;durP2;ratioP2;P2;SDS_P1;SDS_P2;PMS_P1;PMS_P2;Temp;Humidity;BMP_temperature;BMP_pressure;BME280_temperature;BME280_humidity;BME280_pressure;Samples;Min_cycle;Max_cycle;Signal;HPM_P1;HPM_P2
2022/12/30 00:01:40;;;;;;;0.10;0.10;;;;;;;9.42;82.63;95270.59;4328647;32;20189;-62
2022/12/30 00:04:05;;;;;;;0.73;0.60;;;;;;;9.41;83.15;95287.53;4338368;32;20188;-62
2022/12/30 00:06:31;;;;;;;0.40;0.40;;;;;;;9.42;83.39;95286.47;4337582;32;20264;-62
2022/12/30 00:08:57;;;;;;;0.23;0.23;;;;;;;9.29;84.50;95294.06;4315947;33;20210;-62
2022/12/30 00:11:31;;;;;;;0.33;0.33;;;;;;;9.25;84.94;95297.56;4310764;32;20190;-62
2022/12/30 00:34:21;;;;;;;0.20;0.20;;;;;;;9.40;86.33;95337.06;4338506;32;20207;-62
2022/12/30 00:36:49;;;;;;;0.30;0.30;;;;;;;9.29;87.09;95338.28;4336949;32;20294;-62
2022/12/30 00:39:14;;;;;;;0.37;0.37;;;;;;;9.30;87.04;95348.56;4324316;32;20280;-62
2022/12/30 00:44:24;;;;;;;0.00;0.00;;;;;;;9.30;87.68;95361.81;4341219;32;20254;-62
2022/12/30 00:46:49;;;;;;;0.10;0.10;;;;;;;9.26;87.55;95367.94;4340470;32;20289;-61
2022/12/30 00:57:28;;;;;;;0.73;0.37;;;;;;;8.42;84.35;95401.06;4339646;32;20305;-61
2022/12/30 00:59:54;;;;;;;0.00;0.00;;;;;;;8.22;85.04;95402.00;4326906;32;20343;-61
2022/12/30 01:02:19;;;;;;;0.00;0.00;;;;;;;8.10;86.78;95399.72;4339370;32;20301;-61
2022/12/30 01:04:45;;;;;;;0.10;0.10;;;;;;;7.90;87.04;95416.47;4341283;32;20295;-61
2022/12/30 01:07:10;;;;;;;0.00;0.00;;;;;;;7.92;88.34;95435.47;4329569;33;20212;-61
2022/12/30 01:09:36;;;;;;;0.50;0.20;;;;;;;7.83;89.54;95436.34;4334299;32;20205;-62
2022/12/30 01:12:08;;;;;;;0.10;0.10;;;;;;;7.79;89.70;95440.56;4332463;32;20260;-61
2022/12/30 01:14:48;;;;;;;0.00;0.00;;;;;;;7.67;90.86;95437.47;4326720;32;20281;-62
2022/12/30 01:17:18;;;;;;;0.00;0.00;;;;;;;7.67;90.31;95440.91;4337951;32;20324;-61
2022/12/30 01:19:43;;;;;;;0.13;0.13;;;;;;;7.72;90.45;95455.91;4317953;33;20312;-61
2022/12/30 01:22:08;;;;;;;0.00;0.00;;;;;;;7.53;91.06;95472.38;4322684;33;20282;-61
2022/12/30 01:24:34;;;;;;;0.13;0.13;;;;;;;7.28;92.81;95463.72;4316265;33;20189;-62
2022/12/30 01:26:59;;;;;;;0.00;0.00;;;;;;;7.45;92.04;95465.03;4335691;32;20197;-62
2022/12/30 01:29:29;;;;;;;0.00;0.00;;;;;;;7.39;92.18;95475.84;4330659;32;20220;-62
2022/12/30 01:31:57;;;;;;;0.00;0.00;;;;;;;7.38;91.57;95474.28;4319878;33;20296;-61
2022/12/30 01:34:23;;;;;;;0.07;0.07;;;;;;;7.55;91.88;95483.44;4331779;32;20278;-61
2022/12/30 01:36:49;;;;;;;0.00;0.00;;;;;;;7.53;91.10;95488.19;4332843;32;20381;-62
2022/12/30 01:39:14;;;;;;;0.10;0.10;;;;;;;7.48;90.97;95485.56;4332871;32;20192;-61
2022/12/30 01:41:40;;;;;;;0.00;0.00;;;;;;;7.56;90.90;95485.03;4341538;32;20312;-62
2022/12/30 01:44:42;;;;;;;0.00;0.00;;;;;;;7.57;90.63;95494.53;4346374;32;20209;-61
2022/12/30 01:47:10;;;;;;;0.00;0.00;;;;;;;7.49;91.00;95487.16;4336409;32;20192;-61
2022/12/30 01:49:41;;;;;;;0.00;0.00;;;;;;;7.49;91.25;95489.78;4323142;33;20286;-62
2022/12/30 01:52:07;;;;;;;0.00;0.00;;;;;;;7.50;91.41;95490.59;4312498;33;20289;-62
2022/12/30 01:54:35;;;;;;;0.00;0.00;;;;;;;7.59;91.74;95489.78;4322362;33;20289;-62
2022/12/30 01:57:00;;;;;;;0.00;0.00;;;;;;;7.54;90.78;95484.50;4324948;33;20178;-61
2022/12/30 01:59:27;;;;;;;0.00;0.00;;;;;;;7.51;91.86;95485.03;4326341;33;20319;-62
2022/12/30 02:01:53;;;;;;;0.00;0.00;;;;;;;7.45;91.89;95490.63;4326060;33;20182;-62
2022/12/30 02:04:23;;;;;;;0.00;0.00;;;;;;;7.53;91.39;95495.31;4314921;32;20300;-61
2022/12/30 02:07:01;;;;;;;0.00;0.00;;;;;;;7.43;90.76;95495.38;4327161;33;20297;-61
2022/12/30 02:09:28;;;;;;;0.00;0.00;;;;;;;7.41;90.77;95495.63;4327905;33;20374;-62
2022/12/30 02:11:55;;;;;;;0.00;0.00;;;;;;;7.24;91.71;95500.44;4324170;33;20286;-62
2022/12/30 02:14:21;;;;;;;0.00;0.00;;;;;;;7.35;91.79;95501.97;4327907;32;20374;-61
2022/12/30 02:17:02;;;;;;;0.00;0.00;;;;;;;7.41;91.40;95498.28;4342798;32;20294;-62
2022/12/30 02:19:39;;;;;;;0.00;0.00;;;;;;;7.34;92.22;95492.47;4337715;32;20198;-61
2022/12/30 02:22:42;;;;;;;0.00;0.00;;;;;;;7.39;92.43;95491.69;4323342;33;20294;-62
2022/12/30 02:25:44;;;;;;;0.10;0.10;;;;;;;7.37;92.45;95493.81;4343698;32;20312;-62
2022/12/30 02:28:35;;;;;;;0.00;0.00;;;;;;;7.45;92.53;95494.06;4328639;32;20288;-62
2022/12/30 02:31:26;;;;;;;0.00;0.00;;;;;;;7.35;92.38;95496.72;4326804;32;20340;-62
2022/12/30 02:34:35;;;;;;;0.00;0.00;;;;;;;7.34;92.70;95492.47;4306982;32;20289;-62
2022/12/30 02:37:25;;;;;;;0.00;0.00;;;;;;;7.43;92.05;95493.53;4334815;32;20285;-62
2022/12/30 02:40:05;;;;;;;0.00;0.00;;;;;;;7.16;92.90;95496.50;4323931;32;20291;-61
2022/12/30 02:45:48;;;;;;;0.00;0.00;;;;;;;7.20;93.12;95500.19;4327968;32;20336;-62
2022/12/30 02:48:20;;;;;;;0.00;0.00;;;;;;;7.20;93.69;95502.03;4321136;33;20354;-62
2022/12/30 02:53:37;;;;;;;0.00;0.00;;;;;;;7.11;94.24;95504.41;4324613;33;20436;-62
2022/12/30 02:56:03;;;;;;;0.10;0.00;;;;;;;7.01;94.91;95503.66;4319270;32;20360;-62
2022/12/30 02:58:32;;;;;;;0.00;0.00;;;;;;;6.99;95.22;95505.75;4321557;32;20316;-61
2022/12/30 03:04:40;;;;;;;0.00;0.00;;;;;;;7.09;94.94;95503.87;4337757;32;20308;-61
2022/12/30 03:07:32;;;;;;;0.00;0.00;;;;;;;7.02;95.43;95500.75;4324418;32;20305;-61
2022/12/30 03:13:07;;;;;;;0.20;0.20;;;;;;;6.96;95.44;95507.06;4341124;32;20324;-62
2022/12/30 03:15:46;;;;;;;0.00;0.00;;;;;;;6.95;96.00;95508.12;4327856;32;20281;-61
2022/12/30 03:18:13;;;;;;;0.00;0.00;;;;;;;6.89;96.24;95512.59;4344113;32;20282;-62
2022/12/30 03:20:41;;;;;;;0.00;0.00;;;;;;;6.81;96.47;95518.44;4327029;32;20290;-62
2022/12/30 03:28:46;;;;;;;0.00;0.00;;;;;;;6.99;95.29;95522.38;4331810;32;20376;-62
2022/12/30 03:31:14;;;;;;;0.07;0.07;;;;;;;6.76;96.14;95523.69;4326880;32;20277;-62
2022/12/30 03:33:41;;;;;;;0.00;0.00;;;;;;;6.85;95.78;95522.13;4336140;32;20293;-61
2022/12/30 03:36:28;;;;;;;0.00;0.00;;;;;;;6.86;95.72;95523.69;4341357;32;20352;-62
2022/12/30 03:39:00;;;;;;;0.00;0.00;;;;;;;6.68;96.35;95531.31;4326248;33;20393;-62
2022/12/30 03:41:27;;;;;;;0.00;0.00;;;;;;;6.77;95.91;95535.81;4324222;32;20333;-61
2022/12/30 03:43:53;;;;;;;0.00;0.00;;;;;;;6.69;96.10;95538.19;4324457;32;20274;-62
2022/12/30 03:46:20;;;;;;;0.03;0.03;;;;;;;6.72;96.11;95535.81;4341723;32;20361;-62
2022/12/30 03:48:45;;;;;;;0.10;0.10;;;;;;;6.76;96.59;95538.72;4340083;32;20288;-62
2022/12/30 03:51:11;;;;;;;0.00;0.00;;;;;;;6.67;96.43;95538.44;4328232;32;20277;-61
2022/12/30 03:53:36;;;;;;;0.00;0.00;;;;;;;6.72;96.62;95529.75;4340247;32;20197;-62
2022/12/30 03:56:02;;;;;;;0.93;0.40;;;;;;;6.56;96.33;95539.50;4338346;32;20344;-62
2022/12/30 03:58:27;;;;;;;0.00;0.00;;;;;;;6.68;96.39;95537.38;4326332;32;20207;-61
2022/12/30 04:00:52;;;;;;;0.00;0.00;;;;;;;6.63;96.55;95537.41;4326495;32;20190;-62
2022/12/30 04:03:18;;;;;;;0.00;0.00;;;;;;;6.71;96.47;95536.88;4341526;32;20201;-62
2022/12/30 04:05:43;;;;;;;0.00;0.00;;;;;;;6.73;96.46;95531.34;4326670;32;20177;-62
2022/12/30 04:08:08;;;;;;;0.10;0.10;;;;;;;6.63;96.77;95533.97;4341882;32;20203;-61
2022/12/30 04:10:33;;;;;;;0.00;0.00;;;;;;;6.54;97.14;95536.34;4340505;32;20216;-62
2022/12/30 04:12:59;;;;;;;0.00;0.00;;;;;;;6.39;97.93;95542.37;4327642;32;20233;-61
2022/12/30 04:15:24;;;;;;;0.00;0.00;;;;;;;6.55;97.83;95546.62;4339672;32;20204;-61
2022/12/30 04:17:49;;;;;;;0.00;0.00;;;;;;;6.64;96.60;95536.34;4340230;32;20274;-62
2022/12/30 04:20:16;;;;;;;0.13;0.13;;;;;;;6.57;97.35;95541.09;4338210;32;20201;-62
2022/12/30 04:22:41;;;;;;;0.00;0.00;;;;;;;6.53;97.53;95529.47;4328570;32;20201;-62
2022/12/30 04:25:07;;;;;;;0.00;0.00;;;;;;;6.64;97.52;95530.28;4325598;33;20341;-62
2022/12/30 04:27:32;;;;;;;0.00;0.00;;;;;;;6.65;97.36;95535.28;4325805;32;20292;-62
2022/12/30 04:29:57;;;;;;;0.00;0.00;;;;;;;6.70;96.82;95532.66;4335951;32;20193;-62
2022/12/30 04:32:23;;;;;;;0.00;0.00;;;;;;;6.84;96.39;95525.81;4332507;32;20189;-62
2022/12/30 04:34:48;;;;;;;0.03;0.03;;;;;;;6.97;95.65;95534.22;4339327;32;20180;-62
2022/12/30 04:37:13;;;;;;;0.00;0.00;;;;;;;6.92;95.38;95526.31;4339222;32;20193;-62
2022/12/30 04:39:39;;;;;;;0.00;0.00;;;;;;;7.06;94.62;95522.09;4342583;32;20198;-62
2022/12/30 04:42:04;;;;;;;0.00;0.00;;;;;;;7.10;94.36;95526.56;4322675;32;20189;-62
2022/12/30 04:44:29;;;;;;;0.00;0.00;;;;;;;7.08;93.98;95525.25;4325790;32;20246;-62
2022/12/30 04:46:55;;;;;;;0.00;0.00;;;;;;;7.27;93.11;95525.50;4339758;32;20181;-61
2022/12/30 04:49:20;;;;;;;0.17;0.17;;;;;;;7.29;92.97;95526.00;4340007;32;20288;-62
2022/12/30 04:51:45;;;;;;;0.00;0.00;;;;;;;7.29;92.96;95524.16;4325912;32;20272;-62
2022/12/30 04:54:11;;;;;;;0.00;0.00;;;;;;;7.39;92.57;95510.94;4341175;32;20256;-62
2022/12/30 04:56:36;;;;;;;0.00;0.00;;;;;;;7.45;91.92;95517.81;4326250;32;20260;-62
2022/12/30 04:59:01;;;;;;;0.00;0.00;;;;;;;7.38;92.32;95522.56;4339508;32;20283;-62
2022/12/30 05:01:27;;;;;;;0.00;0.00;;;;;;;7.40;92.21;95517.81;4339393;32;20290;-62
2022/12/30 05:03:52;;;;;;;0.00;0.00;;;;;;;7.34;92.83;95518.09;4341968;32;20189;-62
2022/12/30 05:06:17;;;;;;;0.10;0.10;;;;;;;7.20;93.22;95512.56;4325303;32;20200;-62
2022/12/30 05:08:43;;;;;;;0.00;0.00;;;;;;;7.21;93.61;95514.94;4339018;32;20185;-62
2022/12/30 05:11:08;;;;;;;0.30;0.30;;;;;;;7.23;93.39;95518.13;4340157;32;20193;-62
2022/12/30 05:13:33;;;;;;;0.00;0.00;;;;;;;7.35;93.30;95515.19;4339449;32;20204;-61
2022/12/30 05:15:59;;;;;;;0.00;0.00;;;;;;;7.37;93.25;95515.69;4339099;32;20208;-62
2022/12/30 05:18:24;;;;;;;0.00;0.00;;;;;;;7.46;92.93;95521.25;4341058;32;20185;-61
2022/12/30 05:20:49;;;;;;;0.00;0.00;;;;;;;7.64;92.01;95518.00;4340424;32;20289;-62
2022/12/30 05:26:15;;;;;;;0.00;0.00;;;;;;;7.58;92.08;95524.34;4326616;32;20272;-62
2022/12/30 05:28:46;;;;;;;0.00;0.00;;;;;;;7.52;91.66;95520.16;4354693;32;20296;-61
2022/12/30 05:31:13;;;;;;;0.10;0.10;;;;;;;7.34;92.41;95518.87;4335615;32;20392;-62
2022/12/30 05:33:39;;;;;;;0.10;0.10;;;;;;;7.68;91.22;95526.97;4332826;32;20278;-62
2022/12/30 05:36:05;;;;;;;0.00;0.00;;;;;;;7.71;90.92;95523.78;4326468;32;20294;-61
2022/12/30 05:38:30;;;;;;;0.70;0.30;;;;;;;7.86;90.39;95522.94;4327175;33;20225;-62
2022/12/30 05:40:55;;;;;;;0.00;0.00;;;;;;;7.68;90.75;95528.81;4327398;33;20189;-62
2022/12/30 05:43:21;;;;;;;0.00;0.00;;;;;;;7.74;90.89;95522.44;4317803;33;20204;-62
2022/12/30 05:45:47;;;;;;;0.00;0.00;;;;;;;7.41;91.27;95526.53;4330529;32;20205;-61
2022/12/30 05:48:13;;;;;;;0.00;0.00;;;;;;;7.33;92.22;95533.13;4324030;33;20182;-62
2022/12/30 05:50:39;;;;;;;0.03;0.03;;;;;;;7.49;92.21;95531.22;4335736;32;20307;-62
2022/12/30 05:53:04;;;;;;;0.00;0.00;;;;;;;7.72;90.30;95537.75;4336889;32;20204;-62
2022/12/30 05:55:30;;;;;;;0.33;0.33;;;;;;;7.59;90.72;95532.00;4328832;32;20320;-62
2022/12/30 05:57:56;;;;;;;0.23;0.23;;;;;;;7.39;91.76;95533.91;4324881;32;20231;-62
2022/12/30 06:00:21;;;;;;;0.20;0.20;;;;;;;7.38;91.83;95534.97;4336763;32;20231;-62
2022/12/30 06:02:46;;;;;;;0.00;0.00;;;;;;;7.43;91.75;95516.50;4329950;32;20200;-62
2022/12/30 06:05:12;;;;;;;0.00;0.00;;;;;;;7.50;91.77;95516.97;4344479;32;20277;-62
2022/12/30 06:07:37;;;;;;;0.10;0.10;;;;;;;7.45;91.46;95517.00;4325821;33;20221;-61
2022/12/30 06:10:03;;;;;;;0.00;0.00;;;;;;;7.33;91.92;95501.47;4328718;32;20213;-62
2022/12/30 06:12:28;;;;;;;0.00;0.00;;;;;;;7.33;91.78;95509.38;4322996;32;20202;-62
2022/12/30 06:14:53;;;;;;;0.00;0.00;;;;;;;7.02;93.74;95506.03;4327028;33;20194;-62
2022/12/30 06:17:18;;;;;;;0.10;0.10;;;;;;;7.30;92.37;95507.25;4321400;33;20262;-61
2022/12/30 06:19:44;;;;;;;0.20;0.20;;;;;;;7.55;90.78;95504.56;4317166;32;20177;-62
2022/12/30 06:22:09;;;;;;;0.10;0.00;;;;;;;7.57;90.25;95502.44;4327020;32;20181;-62
2022/12/30 06:24:34;;;;;;;0.00;0.00;;;;;;;7.59;90.91;95495.06;4338034;32;20197;-61
2022/12/30 06:27:00;;;;;;;0.00;0.00;;;;;;;7.46;90.79;95494.84;4335318;32;20236;-61
2022/12/30 06:29:25;;;;;;;0.67;0.13;;;;;;;7.31;91.37;95502.78;4340393;32;20182;-61
2022/12/30 06:31:50;;;;;;;0.00;0.00;;;;;;;7.45;91.10;95506.47;4341285;32;20197;-62
2022/12/30 06:34:16;;;;;;;0.00;0.00;;;;;;;7.48;90.58;95509.31;4341588;32;20204;-62
2022/12/30 06:36:41;;;;;;;0.10;0.10;;;;;;;7.39;90.54;95510.94;4333568;32;20198;-61
2022/12/30 06:39:06;;;;;;;0.00;0.00;;;;;;;7.40;91.21;95512.53;4326470;33;20228;-62
2022/12/30 06:41:31;;;;;;;0.00;0.00;;;;;;;7.29;91.33;95513.59;4314361;33;20311;-62
2022/12/30 06:43:57;;;;;;;0.10;0.10;;;;;;;7.31;91.22;95519.41;4317050;32;20194;-62
2022/12/30 06:46:22;;;;;;;0.00;0.00;;;;;;;7.29;91.33;95521.53;4336576;32;20240;-61
2022/12/30 06:48:47;;;;;;;0.00;0.00;;;;;;;7.08;92.27;95517.31;4323223;33;20213;-61
2022/12/30 06:51:13;;;;;;;0.00;0.00;;;;;;;7.10;92.39;95520.50;4318912;32;20228;-62
2022/12/30 06:53:38;;;;;;;0.00;0.00;;;;;;;7.16;91.86;95522.06;4326899;32;20200;-61
2022/12/30 06:56:04;;;;;;;0.27;0.27;;;;;;;7.14;91.48;95527.63;4340855;32;20201;-62
2022/12/30 06:58:29;;;;;;;0.00;0.00;;;;;;;7.24;91.16;95529.47;4340625;32;20193;-61
2022/12/30 07:00:54;;;;;;;0.07;0.07;;;;;;;7.24;91.05;95530.25;4337074;32;20223;-61
2022/12/30 07:03:20;;;;;;;0.10;0.10;;;;;;;7.13;91.36;95528.69;4324329;33;20348;-62
2022/12/30 07:05:45;;;;;;;0.07;0.07;;;;;;;7.21;91.36;95525.50;4319245;33;20200;-62
2022/12/30 07:08:11;;;;;;;0.00;0.00;;;;;;;6.96;91.70;95524.75;4324131;33;20208;-62
2022/12/30 07:10:37;;;;;;;0.00;0.00;;;;;;;7.06;91.46;95519.47;4331990;32;20251;-61
2022/12/30 07:13:02;;;;;;;0.00;0.00;;;;;;;7.09;91.21;95516.28;4340395;32;23628;-61
2022/12/30 07:15:27;;;;;;;0.00;0.00;;;;;;;7.01;91.34;95524.75;4340275;32;20201;-61
2022/12/30 07:17:53;;;;;;;0.10;0.10;;;;;;;6.93;91.62;95520.00;4341004;32;20223;-61
2022/12/30 07:20:18;;;;;;;0.03;0.03;;;;;;;6.90;92.22;95523.94;4354955;32;20201;-64
2022/12/30 07:22:43;;;;;;;0.20;0.20;;;;;;;6.88;92.10;95528.69;4349906;32;20182;-61
2022/12/30 07:25:09;;;;;;;0.07;0.07;;;;;;;7.06;91.58;95530.03;4340799;32;20193;-61
2022/12/30 07:27:35;;;;;;;0.20;0.20;;;;;;;6.92;91.79;95523.69;4334797;32;20198;-61
2022/12/30 07:30:01;;;;;;;0.20;0.10;;;;;;;6.80;92.09;95518.69;4322374;32;20233;-61
2022/12/30 07:32:26;;;;;;;0.37;0.37;;;;;;;6.88;92.04;95511.03;4314911;33;20256;-61
2022/12/30 07:34:51;;;;;;;0.00;0.00;;;;;;;6.70;92.83;95516.03;4327043;33;20189;-61
2022/12/30 07:37:17;;;;;;;0.10;0.10;;;;;;;6.74;92.55;95519.72;4330380;32;20194;-61
2022/12/30 07:39:42;;;;;;;0.20;0.20;;;;;;;6.72;92.65;95524.47;4325955;33;20248;-61
2022/12/30 07:42:07;;;;;;;0.27;0.27;;;;;;;6.79;92.47;95528.44;4325018;32;20199;-61
2022/12/30 07:44:33;;;;;;;0.10;0.10;;;;;;;6.79;92.27;95533.72;4313556;32;20216;-61
2022/12/30 07:46:58;;;;;;;0.20;0.20;;;;;;;6.81;92.38;95536.09;4330627;32;20189;-61
2022/12/30 07:49:23;;;;;;;0.23;0.13;;;;;;;6.64;92.33;95538.19;4320283;33;20189;-62
2022/12/30 07:51:49;;;;;;;0.00;0.00;;;;;;;6.70;92.58;95523.94;4326296;32;20190;-61
2022/12/30 07:54:14;;;;;;;0.30;0.10;;;;;;;6.70;92.83;95521.31;4332841;32;20230;-61
2022/12/30 07:56:39;;;;;;;0.10;0.10;;;;;;;6.66;92.88;95522.88;4328683;32;20251;-61
2022/12/30 07:59:05;;;;;;;0.00;0.00;;;;;;;6.66;92.36;95523.69;4341455;32;20174;-61
2022/12/30 08:01:30;;;;;;;0.00;0.00;;;;;;;6.69;92.18;95517.88;4342977;32;20233;-61
2022/12/30 08:03:56;;;;;;;0.00;0.00;;;;;;;6.62;92.57;95530.56;4339858;32;20223;-61
2022/12/30 08:06:21;;;;;;;0.63;0.50;;;;;;;6.66;92.62;95534.22;4326312;32;20228;-61
2022/12/30 08:08:47;;;;;;;0.10;0.10;;;;;;;6.74;92.04;95531.06;4340515;32;20186;-61
2022/12/30 08:11:14;;;;;;;0.20;0.20;;;;;;;6.72;92.26;95535.81;4341496;32;20197;-61
2022/12/30 08:13:41;;;;;;;0.10;0.10;;;;;;;6.86;91.91;95536.06;4327276;32;20239;-61
2022/12/30 08:16:12;;;;;;;0.07;0.07;;;;;;;6.93;91.33;95536.59;4319770;32;20282;-61
2022/12/30 08:18:38;;;;;;;0.00;0.00;;;;;;;6.97;91.05;95539.50;4315708;32;20303;-61
2022/12/30 08:21:10;;;;;;;0.63;0.40;;;;;;;6.94;90.74;95540.03;4337070;32;20286;-61
2022/12/30 08:23:35;;;;;;;0.10;0.10;;;;;;;6.86;91.48;95538.69;4322628;33;20217;-61
2022/12/30 08:26:08;;;;;;;0.10;0.10;;;;;;;6.94;91.21;95540.81;4307274;33;20297;-61
2022/12/30 08:28:35;;;;;;;0.30;0.30;;;;;;;6.96;91.36;95537.94;4340585;32;20181;-61
2022/12/30 08:31:17;;;;;;;0.00;0.00;;;;;;;6.99;91.39;95537.41;4325746;32;20318;-61
2022/12/30 08:33:44;;;;;;;0.20;0.20;;;;;;;6.72;91.91;95541.09;4321649;32;20316;-61
2022/12/30 08:36:12;;;;;;;0.47;0.47;;;;;;;6.62;92.45;95537.66;4335968;32;20279;-61
2022/12/30 08:38:40;;;;;;;0.20;0.17;;;;;;;6.62;92.54;95540.31;4322394;33;20283;-61
2022/12/30 08:41:15;;;;;;;0.10;0.10;;;;;;;6.66;92.53;95536.84;4311331;33;20332;-61
2022/12/30 08:43:40;;;;;;;0.30;0.30;;;;;;;6.86;91.72;95528.94;4319962;32;20349;-61
2022/12/30 08:46:06;;;;;;;0.97;0.33;;;;;;;6.84;91.55;95531.09;4333670;32;20282;-61
2022/12/30 08:48:32;;;;;;;0.10;0.10;;;;;;;6.97;91.18;95528.97;4320701;32;20200;-61
2022/12/30 08:50:57;;;;;;;0.10;0.10;;;;;;;6.95;91.36;95537.13;4327652;32;20189;-61
2022/12/30 08:53:23;;;;;;;0.10;0.10;;;;;;;6.97;91.41;95535.03;4326999;32;20213;-61
2022/12/30 08:55:56;;;;;;;0.60;0.60;;;;;;;6.72;92.21;95538.44;4325426;32;20205;-61
2022/12/30 08:58:22;;;;;;;0.23;0.23;;;;;;;6.78;92.23;95541.87;4332878;32;20197;-61
2022/12/30 09:00:47;;;;;;;0.23;0.23;;;;;;;6.81;91.87;95550.06;4339048;32;20278;-61
2022/12/30 09:03:12;;;;;;;0.10;0.10;;;;;;;7.00;91.20;95549.53;4341458;32;20208;-61
2022/12/30 09:05:38;;;;;;;0.10;0.10;;;;;;;7.09;90.45;95553.19;4340213;32;20197;-61
2022/12/30 09:08:03;;;;;;;0.20;0.20;;;;;;;6.89;91.25;95549.53;4325244;32;20193;-61
2022/12/30 09:10:29;;;;;;;0.30;0.30;;;;;;;6.95;91.52;95541.63;4341438;32;20256;-61
2022/12/30 09:12:54;;;;;;;0.30;0.10;;;;;;;6.93;91.48;95539.25;4333185;32;20265;-61
2022/12/30 09:15:20;;;;;;;0.00;0.00;;;;;;;6.98;91.39;95538.44;4334178;32;20276;-61
2022/12/30 09:17:46;;;;;;;0.10;0.10;;;;;;;7.01;91.33;95545.84;4339785;32;20256;-61
2022/12/30 09:20:11;;;;;;;4.07;0.50;;;;;;;7.21;90.39;95541.34;4348413;32;20197;-61
2022/12/30 09:22:36;;;;;;;0.03;0.03;;;;;;;7.30;89.60;95543.41;4345889;32;20181;-61
2022/12/30 09:25:02;;;;;;;0.47;0.47;;;;;;;7.35;89.30;95540.78;4339436;32;20240;-61
2022/12/30 09:27:27;;;;;;;0.13;0.13;;;;;;;7.41;89.17;95540.50;4334545;32;20204;-61
2022/12/30 09:29:53;;;;;;;0.13;0.13;;;;;;;7.57;88.28;95539.41;4325348;32;20196;-61
2022/12/30 09:32:19;;;;;;;0.00;0.00;;;;;;;7.48;88.58;95538.34;4325669;32;20210;-61
2022/12/30 09:34:44;;;;;;;0.47;0.47;;;;;;;7.50;88.53;95532.81;4338175;32;20278;-61
2022/12/30 09:37:09;;;;;;;0.30;0.30;;;;;;;7.61;88.25;95523.03;4335912;32;20198;-61
2022/12/30 09:39:35;;;;;;;0.50;0.50;;;;;;;7.58;87.97;95529.63;4311377;33;20194;-61
2022/12/30 09:45:05;;;;;;;0.00;0.00;;;;;;;7.66;87.60;95528.31;4323554;33;20265;-61
2022/12/30 09:47:40;;;;;;;0.20;0.20;;;;;;;7.78;87.50;95526.13;4324570;32;20286;-61
2022/12/30 09:50:16;;;;;;;0.00;0.00;;;;;;;7.77;87.12;95527.97;4338116;32;20277;-61
2022/12/30 09:52:56;;;;;;;0.10;0.10;;;;;;;7.72;86.78;95521.94;4320199;33;20289;-61
2022/12/30 09:55:27;;;;;;;0.00;0.00;;;;;;;7.87;86.55;95521.88;4320011;33;20329;-61
2022/12/30 09:57:57;;;;;;;0.00;0.00;;;;;;;7.93;85.90;95507.56;4338005;32;20331;-61
2022/12/30 10:00:23;;;;;;;0.20;0.20;;;;;;;8.10;85.33;95505.41;4339143;32;20281;-62
2022/12/30 10:03:16;;;;;;;0.17;0.17;;;;;;;8.09;85.08;95498.53;4325424;32;20323;-61
2022/12/30 10:06:12;;;;;;;0.10;0.10;;;;;;;8.18;84.94;95496.09;4334688;32;20290;-61
2022/12/30 10:08:56;;;;;;;0.03;0.03;;;;;;;8.27;84.84;95478.59;4337917;32;20281;-61
2022/12/30 10:11:28;;;;;;;0.00;0.00;;;;;;;8.33;84.59;95479.38;4324798;32;20365;-61
2022/12/30 10:14:23;;;;;;;0.10;0.10;;;;;;;8.35;84.51;95472.75;4326479;32;20385;-61
2022/12/30 10:17:18;;;;;;;0.20;0.20;;;;;;;8.42;83.76;95461.88;4293867;33;20278;-61
2022/12/30 10:20:02;;;;;;;0.10;0.10;;;;;;;8.50;83.34;95453.38;4341843;32;20285;-62
2022/12/30 10:22:49;;;;;;;0.17;0.17;;;;;;;8.39;83.51;95454.50;4337407;32;20294;-61
2022/12/30 10:25:36;;;;;;;0.00;0.00;;;;;;;8.49;83.34;95436.72;4341207;32;20292;-61
2022/12/30 10:28:02;;;;;;;0.03;0.03;;;;;;;8.56;83.38;95433.72;4322741;32;20325;-61
2022/12/30 10:30:40;;;;;;;0.20;0.20;;;;;;;8.56;83.11;95426.59;4328300;32;20277;-61
2022/12/30 10:33:17;;;;;;;0.00;0.00;;;;;;;8.65;82.94;95413.56;4342900;32;20285;-61
2022/12/30 10:35:45;;;;;;;0.20;0.20;;;;;;;8.81;81.47;95409.72;4339354;32;20294;-62
2022/12/30 10:38:22;;;;;;;0.00;0.00;;;;;;;8.80;81.57;95405.47;4322069;33;20287;-61
2022/12/30 10:41:38;;;;;;;0.00;0.00;;;;;;;8.79;81.35;95408.41;4324344;32;20282;-61
2022/12/30 10:44:18;;;;;;;0.10;0.10;;;;;;;8.84;80.96;95397.78;4279908;32;20373;-61
2022/12/30 10:46:46;;;;;;;0.60;0.47;;;;;;;8.72;81.23;95394.75;4339610;32;20274;-62
2022/12/30 10:49:19;;;;;;;0.20;0.20;;;;;;;8.78;80.12;95383.81;4331694;32;20287;-61
2022/12/30 10:51:46;;;;;;;0.33;0.33;;;;;;;8.84;80.07;95385.34;4325613;32;20350;-61
2022/12/30 10:54:11;;;;;;;0.30;0.30;;;;;;;8.79;79.35;95382.75;4344303;32;20277;-61
2022/12/30 10:56:36;;;;;;;0.33;0.33;;;;;;;8.86;79.49;95377.91;4343000;32;20289;-61
2022/12/30 10:59:14;;;;;;;0.43;0.20;;;;;;;8.80;79.47;95384.31;4340942;32;20188;-62
2022/12/30 11:01:42;;;;;;;0.20;0.20;;;;;;;8.89;79.09;95379.22;4341349;32;20198;-62
2022/12/30 11:04:32;;;;;;;0.23;0.23;;;;;;;8.84;79.00;95377.41;4324682;32;20321;-61
2022/12/30 11:06:59;;;;;;;2.27;0.23;;;;;;;8.98;78.89;95376.72;4333465;32;20268;-62
2022/12/30 11:09:24;;;;;;;0.27;0.27;;;;;;;8.85;78.99;95368.41;4333421;32;20389;-62
2022/12/30 11:14:42;;;;;;;0.20;0.20;;;;;;;8.80;79.41;95359.72;4341144;32;20200;-62
2022/12/30 11:17:24;;;;;;;1.17;0.70;;;;;;;8.83;79.42;95352.03;4342682;32;20312;-61
2022/12/30 11:19:52;;;;;;;0.10;0.10;;;;;;;9.07;79.10;95343.31;4326498;32;20196;-62
2022/12/30 11:22:18;;;;;;;0.30;0.30;;;;;;;9.12;79.03;95341.41;4347200;32;20270;-62
2022/12/30 11:25:05;;;;;;;0.00;0.00;;;;;;;9.03;79.47;95332.50;4336418;32;20347;-62
2022/12/30 11:27:46;;;;;;;0.17;0.17;;;;;;;9.03;79.45;95329.84;4328789;32;20201;-61
2022/12/30 11:30:39;;;;;;;0.00;0.00;;;;;;;9.11;78.82;95333.72;4332013;32;20383;-61
2022/12/30 11:33:15;;;;;;;0.00;0.00;;;;;;;8.98;79.51;95323.81;4323759;33;20334;-61
2022/12/30 11:35:47;;;;;;;0.03;0.03;;;;;;;8.99;78.79;95322.75;4350226;32;20334;-61
2022/12/30 11:38:30;;;;;;;0.10;0.10;;;;;;;8.95;79.19;95315.38;4350834;32;20291;-62
2022/12/30 11:40:55;;;;;;;0.10;0.10;;;;;;;9.05;79.20;95311.84;4330172;33;20336;-62
2022/12/30 11:43:21;;;;;;;0.20;0.20;;;;;;;9.06;78.54;95308.13;4314924;33;20397;-62
2022/12/30 11:46:03;;;;;;;0.20;0.20;;;;;;;9.11;78.23;95308.06;4336382;32;20212;-62
2022/12/30 11:48:38;;;;;;;0.17;0.10;;;;;;;9.11;77.47;95302.78;4337913;32;20290;-61
2022/12/30 11:51:19;;;;;;;0.10;0.10;;;;;;;9.20;76.60;95301.03;4330564;33;20419;-61
2022/12/30 11:53:45;;;;;;;0.27;0.27;;;;;;;9.21;76.61;95296.53;4331494;32;20294;-61
2022/12/30 11:56:11;;;;;;;0.20;0.20;;;;;;;9.28;76.36;95302.28;4343471;32;20293;-61
2022/12/30 11:58:39;;;;;;;0.00;0.00;;;;;;;9.19;77.08;95299.47;4341161;32;20311;-61
2022/12/30 12:01:10;;;;;;;0.20;0.20;;;;;;;9.22;77.47;95298.13;4328706;32;20263;-61
2022/12/30 12:04:05;;;;;;;0.27;0.27;;;;;;;9.23;77.47;95283.81;4343846;32;20189;-61
2022/12/30 12:06:30;;;;;;;1.33;0.40;;;;;;;9.37;76.63;95286.53;4330731;32;20304;-61
2022/12/30 12:09:15;;;;;;;0.10;0.00;;;;;;;9.40;75.91;95273.50;4326964;32;20186;-61
2022/12/30 12:11:45;;;;;;;0.00;0.00;;;;;;;9.56;74.24;95274.84;4338523;32;20197;-61
2022/12/30 12:14:30;;;;;;;0.00;0.00;;;;;;;9.52;74.79;95271.22;4344360;32;20303;-61
2022/12/30 12:17:14;;;;;;;0.10;0.10;;;;;;;9.51;75.06;95274.16;4344663;32;20182;-61
2022/12/30 12:19:51;;;;;;;0.00;0.00;;;;;;;9.37;76.15;95265.34;4340114;32;20304;-61
2022/12/30 12:22:33;;;;;;;0.73;0.40;;;;;;;9.42;75.37;95254.69;4355481;32;20195;-61
2022/12/30 12:25:05;;;;;;;0.10;0.10;;;;;;;9.46;75.27;95256.47;4341699;32;20189;-61
2022/12/30 12:27:31;;;;;;;4.23;0.23;;;;;;;9.52;74.72;95263.28;4328408;32;20193;-61
2022/12/30 12:29:56;;;;;;;0.00;0.00;;;;;;;9.57;73.43;95260.53;4341817;32;20292;-61
2022/12/30 12:32:38;;;;;;;0.10;0.10;;;;;;;9.60;73.27;95262.63;4330696;32;20250;-61
2022/12/30 12:35:20;;;;;;;0.10;0.10;;;;;;;9.63;72.42;95264.69;4335204;32;20284;-61
2022/12/30 12:38:12;;;;;;;0.00;0.00;;;;;;;9.67;72.81;95256.19;4357395;32;20185;-61
2022/12/30 12:41:10;;;;;;;0.00;0.00;;;;;;;9.58;73.95;95258.69;4330926;32;20190;-61
2022/12/30 12:44:02;;;;;;;0.30;0.30;;;;;;;9.60;73.38;95262.63;4324912;33;20190;-61
2022/12/30 12:46:46;;;;;;;0.00;0.00;;;;;;;9.61;73.28;95258.91;4335130;32;20189;-61
2022/12/30 12:49:20;;;;;;;0.17;0.17;;;;;;;9.57;73.54;95265.84;4338961;32;20185;-61
2022/12/30 12:52:06;;;;;;;0.00;0.00;;;;;;;9.61;73.92;95271.34;4338538;32;20285;-61
2022/12/30 12:54:51;;;;;;;0.10;0.10;;;;;;;9.62;73.70;95276.37;4340240;32;20294;-61